createdAt,value
2022-12-11T00:00:07.787Z,-0.5
2022-12-11T00:01:07.782Z,-0.5
2022-12-11T00:02:07.848Z,-0.5
2022-12-11T00:03:11.448Z,-0.6
2022-12-11T00:04:07.778Z,-0.6
2022-12-11T00:05:07.917Z,-0.6
2022-12-11T00:06:07.791Z,-0.6
2022-12-11T00:07:07.802Z,-0.6
2022-12-11T00:08:07.828Z,-0.6
2022-12-11T00:09:07.812Z,-0.6
2022-12-11T00:10:07.793Z,-0.5
2022-12-11T00:11:07.788Z,-0.5
2022-12-11T00:12:07.804Z,-0.5
2022-12-11T00:13:07.803Z,-0.5
2022-12-11T00:14:07.806Z,-0.5
2022-12-11T00:15:08.355Z,-0.5
2022-12-11T00:16:07.794Z,-0.5
2022-12-11T00:17:07.853Z,-0.5
2022-12-11T00:18:07.813Z,-0.4
2022-12-11T00:19:07.806Z,-0.4
2022-12-11T00:20:07.803Z,-0.4
2022-12-11T00:21:07.801Z,-0.4
2022-12-11T00:22:07.811Z,-0.3
2022-12-11T00:23:07.809Z,-0.3
2022-12-11T00:24:07.796Z,-0.3
2022-12-11T00:25:08.159Z,-0.3
2022-12-11T00:26:07.797Z,-0.3
2022-12-11T00:27:07.797Z,-0.3
2022-12-11T00:28:07.838Z,-0.3
2022-12-11T00:29:07.799Z,-0.3
2022-12-11T00:30:07.796Z,-0.3
2022-12-11T00:31:07.834Z,-0.3
2022-12-11T00:32:07.872Z,-0.4
2022-12-11T00:33:07.809Z,-0.4
2022-12-11T00:34:07.816Z,-0.4
2022-12-11T00:35:08.217Z,-0.4
2022-12-11T00:36:07.827Z,-0.4
2022-12-11T00:37:07.821Z,-0.5
2022-12-11T00:38:07.815Z,-0.5
2022-12-11T00:39:07.807Z,-0.5
2022-12-11T00:40:07.800Z,-0.5
2022-12-11T00:41:07.939Z,-0.5
2022-12-11T00:42:07.820Z,-0.5
2022-12-11T00:43:08.022Z,-0.5
2022-12-11T00:44:07.808Z,-0.5
2022-12-11T00:45:08.009Z,-0.5
2022-12-11T00:46:07.850Z,-0.5
2022-12-11T00:47:07.804Z,-0.5
2022-12-11T00:48:07.818Z,-0.5
2022-12-11T00:49:07.803Z,-0.4
2022-12-11T00:50:07.805Z,-0.4
2022-12-11T00:51:07.819Z,-0.4
2022-12-11T00:52:07.840Z,-0.4
2022-12-11T00:53:07.858Z,-0.3
2022-12-11T00:54:07.831Z,-0.3
2022-12-11T00:55:08.025Z,-0.3
2022-12-11T00:56:07.850Z,-0.3
2022-12-11T00:57:07.842Z,-0.3
2022-12-11T00:58:07.845Z,-0.3
2022-12-11T00:59:07.829Z,-0.4
2022-12-11T01:00:07.822Z,-0.4
2022-12-11T01:01:07.881Z,-0.5
2022-12-11T01:02:07.838Z,-0.5
2022-12-11T01:03:07.928Z,-0.5
2022-12-11T01:04:07.821Z,-0.5
2022-12-11T01:05:08.016Z,-0.5
2022-12-11T01:06:07.956Z,-0.6
2022-12-11T01:07:07.831Z,-0.6
2022-12-11T01:08:07.899Z,-0.6
2022-12-11T01:09:07.828Z,-0.6
2022-12-11T01:10:07.884Z,-0.6
2022-12-11T01:11:07.843Z,-0.6
2022-12-11T01:12:07.827Z,-0.7
2022-12-11T01:13:07.936Z,-0.7
2022-12-11T01:14:07.836Z,-0.7
2022-12-11T01:15:08.261Z,-0.7
2022-12-11T01:16:07.845Z,-0.7
2022-12-11T01:17:07.871Z,-0.8
2022-12-11T01:18:07.858Z,-0.7
2022-12-11T01:19:07.850Z,-0.7
2022-12-11T01:20:07.908Z,-0.7
2022-12-11T01:21:07.870Z,-0.6
2022-12-11T01:22:07.827Z,-0.6
2022-12-11T01:23:07.850Z,-0.5
2022-12-11T01:24:07.833Z,-0.5
2022-12-11T01:25:07.915Z,-0.5
2022-12-11T01:26:07.837Z,-0.5
2022-12-11T01:27:07.900Z,-0.4
2022-12-11T01:28:07.859Z,-0.4
2022-12-11T01:29:07.854Z,-0.4
2022-12-11T01:30:07.862Z,-0.5
2022-12-11T01:31:07.907Z,-0.5
2022-12-11T01:32:07.831Z,-0.5
2022-12-11T01:33:07.844Z,-0.5
2022-12-11T01:34:07.855Z,-0.6
2022-12-11T01:35:08.134Z,-0.6
2022-12-11T01:36:07.834Z,-0.6
2022-12-11T01:37:07.853Z,-0.6
2022-12-11T01:38:07.867Z,-0.6
2022-12-11T01:39:07.844Z,-0.6
2022-12-11T01:40:07.864Z,-0.6
2022-12-11T01:41:07.839Z,-0.5
2022-12-11T01:42:07.855Z,-0.5
2022-12-11T01:43:07.865Z,-0.5
2022-12-11T01:44:07.843Z,-0.4
2022-12-11T01:45:08.099Z,-0.4
2022-12-11T01:46:07.884Z,-0.4
2022-12-11T01:47:07.853Z,-0.3
2022-12-11T01:48:07.879Z,-0.3
2022-12-11T01:49:07.863Z,-0.2
2022-12-11T01:50:07.846Z,-0.2
2022-12-11T01:51:07.860Z,-0.2
2022-12-11T01:52:07.866Z,-0.1
2022-12-11T01:53:07.865Z,-0.1
2022-12-11T01:54:07.858Z,-0.1
2022-12-11T01:55:08.056Z,-0.1
2022-12-11T01:56:07.854Z,-0.1
2022-12-11T01:57:07.861Z,-0.1
2022-12-11T01:58:07.872Z,-0.1
2022-12-11T01:59:07.856Z,-0.1
2022-12-11T02:00:07.860Z,-0.2
2022-12-11T02:01:07.948Z,-0.2
2022-12-11T02:02:08.014Z,-0.2
2022-12-11T02:03:07.876Z,-0.2
2022-12-11T02:04:07.874Z,-0.3
2022-12-11T02:05:08.173Z,-0.3
2022-12-11T02:06:07.880Z,-0.3
2022-12-11T02:07:07.865Z,-0.3
2022-12-11T02:08:07.905Z,-0.4
2022-12-11T02:09:07.947Z,-0.3
2022-12-11T02:10:07.867Z,-0.3
2022-12-11T02:11:07.876Z,-0.3
2022-12-11T02:12:07.908Z,-0.3
2022-12-11T02:13:08.012Z,-0.3
2022-12-11T02:14:07.865Z,-0.3
2022-12-11T02:15:08.184Z,-0.2
2022-12-11T02:16:07.917Z,-0.2
2022-12-11T02:17:07.883Z,-0.2
2022-12-11T02:18:07.877Z,-0.2
2022-12-11T02:19:07.855Z,-0.1
2022-12-11T02:20:07.855Z,-0.1
2022-12-11T02:21:07.858Z,-0.1
2022-12-11T02:22:07.872Z,-0.1
2022-12-11T02:23:07.876Z,-0.1
2022-12-11T02:24:07.865Z,-0.1
2022-12-11T02:25:08.037Z,-0.1
2022-12-11T02:26:07.869Z,-0.1
2022-12-11T02:27:07.876Z,-0.2
2022-12-11T02:28:07.889Z,-0.2
2022-12-11T02:29:07.856Z,-0.3
2022-12-11T02:30:07.864Z,-0.3
2022-12-11T02:31:07.924Z,-0.3
2022-12-11T02:32:07.892Z,-0.3
2022-12-11T02:33:07.905Z,-0.4
2022-12-11T02:34:07.873Z,-0.4
2022-12-11T02:35:07.978Z,-0.4
2022-12-11T02:36:07.872Z,-0.5
2022-12-11T02:37:07.880Z,-0.5
2022-12-11T02:38:07.877Z,-0.5
2022-12-11T02:39:07.866Z,-0.5
2022-12-11T02:40:07.867Z,-0.5
2022-12-11T02:41:07.889Z,-0.6
2022-12-11T02:42:07.870Z,-0.6
2022-12-11T02:43:07.880Z,-0.6
2022-12-11T02:44:07.872Z,-0.6
2022-12-11T02:45:08.038Z,-0.6
2022-12-11T02:46:08.066Z,-0.7
2022-12-11T02:47:07.911Z,-0.7
2022-12-11T02:48:07.930Z,-0.7
2022-12-11T02:49:07.941Z,-0.7
2022-12-11T02:50:07.926Z,-0.7
2022-12-11T02:51:07.918Z,-0.7
2022-12-11T02:52:07.927Z,-0.7
2022-12-11T02:53:07.961Z,-0.7
2022-12-11T02:54:07.919Z,-0.7
2022-12-11T02:55:08.121Z,-0.7
2022-12-11T02:56:07.932Z,-0.7
2022-12-11T02:57:07.937Z,-0.7
2022-12-11T02:58:07.956Z,-0.8
2022-12-11T02:59:07.933Z,-0.8
2022-12-11T03:00:07.937Z,-0.8
2022-12-11T03:01:08.004Z,-0.9
2022-12-11T03:02:07.966Z,-0.9
2022-12-11T03:03:07.944Z,-1
2022-12-11T03:04:07.952Z,-1.1
2022-12-11T03:05:08.241Z,-1.2
2022-12-11T03:06:07.939Z,-1.2
2022-12-11T03:07:07.929Z,-1.2
2022-12-11T03:08:08.014Z,-1.3
2022-12-11T03:09:07.964Z,-1.3
2022-12-11T03:10:07.950Z,-1.3
2022-12-11T03:11:07.959Z,-1.3
2022-12-11T03:12:07.939Z,-1.3
2022-12-11T03:13:07.978Z,-1.3
2022-12-11T03:14:07.952Z,-1.3
2022-12-11T03:15:08.255Z,-1.3
2022-12-11T03:16:07.964Z,-1.3
2022-12-11T03:17:07.993Z,-1.4
2022-12-11T03:18:08.000Z,-1.4
2022-12-11T03:19:07.984Z,-1.5
2022-12-11T03:20:07.993Z,-1.5
2022-12-11T03:21:08.043Z,-1.6
2022-12-11T03:22:07.977Z,-1.7
2022-12-11T03:23:07.997Z,-1.7
2022-12-11T03:24:07.988Z,-1.8
2022-12-11T03:25:08.386Z,-1.8
2022-12-11T03:26:07.997Z,-1.8
2022-12-11T03:27:11.082Z,-1.9
2022-12-11T03:28:08.009Z,-1.9
2022-12-11T03:29:07.986Z,-2
2022-12-11T03:30:07.986Z,-2
2022-12-11T03:31:08.047Z,-2.1
2022-12-11T03:32:08.154Z,-2.1
2022-12-11T03:33:08.061Z,-2.2
2022-12-11T03:34:07.992Z,-2.3
2022-12-11T03:35:08.004Z,-2.4
2022-12-11T03:36:07.996Z,-2.4
2022-12-11T03:37:08.017Z,-2.5
2022-12-11T03:38:08.006Z,-2.6
2022-12-11T03:39:07.994Z,-2.6
2022-12-11T03:40:08.006Z,-2.7
2022-12-11T03:41:07.999Z,-2.7
2022-12-11T03:42:07.995Z,-2.7
2022-12-11T03:43:08.043Z,-2.8
2022-12-11T03:44:08.005Z,-2.7
2022-12-11T03:45:08.258Z,-2.7
2022-12-11T03:46:08.060Z,-2.6
2022-12-11T03:47:08.031Z,-2.6
2022-12-11T03:48:08.023Z,-2.6
2022-12-11T03:49:08.022Z,-2.6
2022-12-11T03:50:08.022Z,-2.5
2022-12-11T03:51:08.010Z,-2.5
2022-12-11T03:52:08.008Z,-2.5
2022-12-11T03:53:08.047Z,-2.5
2022-12-11T03:54:08.010Z,-2.6
2022-12-11T03:55:08.264Z,-2.7
2022-12-11T03:56:08.022Z,-2.7
2022-12-11T03:57:08.027Z,-2.8
2022-12-11T03:58:08.032Z,-2.8
2022-12-11T03:59:08.015Z,-2.9
2022-12-11T04:00:08.028Z,-2.9
2022-12-11T04:01:08.011Z,-2.9
2022-12-11T04:02:08.044Z,-2.9
2022-12-11T04:03:12.858Z,-3
2022-12-11T04:04:08.309Z,-3
2022-12-11T04:05:08.247Z,-3
2022-12-11T04:06:08.037Z,-3
2022-12-11T04:07:08.055Z,-2.9
2022-12-11T04:08:08.097Z,-2.9
2022-12-11T04:09:08.058Z,-2.9
2022-12-11T04:10:08.059Z,-2.9
2022-12-11T04:11:08.085Z,-2.9
2022-12-11T04:12:08.099Z,-2.9
2022-12-11T04:13:08.114Z,-2.9
2022-12-11T04:14:08.114Z,-2.9
2022-12-11T04:15:08.394Z,-2.9
2022-12-11T04:16:08.286Z,-2.9
2022-12-11T04:17:08.329Z,-3
2022-12-11T04:18:08.292Z,-3
2022-12-11T04:19:08.311Z,-3
2022-12-11T04:20:08.266Z,-3.1
2022-12-11T04:21:08.339Z,-3.1
2022-12-11T04:22:08.279Z,-3.1
2022-12-11T04:23:08.355Z,-3.1
2022-12-11T04:24:08.305Z,-3.1
2022-12-11T04:25:08.516Z,-3.1
2022-12-11T04:26:08.293Z,-3.1
2022-12-11T04:27:08.505Z,-3.1
2022-12-11T04:28:08.332Z,-3.1
2022-12-11T04:29:08.312Z,-3.2
2022-12-11T04:30:08.310Z,-3.2
2022-12-11T04:31:08.379Z,-3.2
2022-12-11T04:32:08.301Z,-3.3
2022-12-11T04:33:08.328Z,-3.3
2022-12-11T04:34:08.279Z,-3.3
2022-12-11T04:35:08.543Z,-3.3
2022-12-11T04:36:08.319Z,-3.3
2022-12-11T04:37:08.313Z,-3.3
2022-12-11T04:38:08.326Z,-3.3
2022-12-11T04:39:08.434Z,-3.3
2022-12-11T04:40:08.435Z,-3.3
2022-12-11T04:41:08.540Z,-3.3
2022-12-11T04:42:08.432Z,-3.3
2022-12-11T04:43:08.515Z,-3.3
2022-12-11T04:44:08.474Z,-3.3
2022-12-11T04:45:08.758Z,-3.3
2022-12-11T04:46:08.496Z,-3.3
2022-12-11T04:47:08.479Z,-3.3
2022-12-11T04:48:08.467Z,-3.3
2022-12-11T04:49:08.495Z,-3.3
2022-12-11T04:50:08.443Z,-3.3
2022-12-11T04:51:08.486Z,-3.3
2022-12-11T04:52:08.451Z,-3.3
2022-12-11T04:53:08.477Z,-3.3
2022-12-11T04:54:08.466Z,-3.3
2022-12-11T04:55:08.767Z,-3.3
2022-12-11T04:56:08.472Z,-3.3
2022-12-11T04:57:08.541Z,-3.3
2022-12-11T04:58:08.493Z,-3.3
2022-12-11T04:59:08.474Z,-3.3
2022-12-11T05:00:08.479Z,-3.3
2022-12-11T05:01:08.418Z,-3.3
2022-12-11T05:02:08.463Z,-3.3
2022-12-11T05:03:08.500Z,-3.3
2022-12-11T05:04:08.455Z,-3.3
2022-12-11T05:05:08.686Z,-3.3
2022-12-11T05:06:08.436Z,-3.3
2022-12-11T05:07:08.442Z,-3.2
2022-12-11T05:08:08.493Z,-3.1
2022-12-11T05:09:08.459Z,-3.1
2022-12-11T05:10:08.441Z,-3
2022-12-11T05:11:08.438Z,-2.9
2022-12-11T05:12:08.436Z,-2.9
2022-12-11T05:13:08.509Z,-2.8
2022-12-11T05:14:08.480Z,-2.8
2022-12-11T05:15:08.765Z,-2.7
2022-12-11T05:16:08.532Z,-2.7
2022-12-11T05:17:08.519Z,-2.7
2022-12-11T05:18:08.503Z,-2.7
2022-12-11T05:19:08.507Z,-2.7
2022-12-11T05:20:08.492Z,-2.8
2022-12-11T05:21:08.487Z,-2.8
2022-12-11T05:22:08.452Z,-2.8
2022-12-11T05:23:08.496Z,-2.8
2022-12-11T05:24:08.458Z,-2.8
2022-12-11T05:25:08.794Z,-2.7
2022-12-11T05:26:08.492Z,-2.7
2022-12-11T05:27:08.485Z,-2.6
2022-12-11T05:28:08.505Z,-2.6
2022-12-11T05:29:08.486Z,-2.5
2022-12-11T05:30:08.525Z,-2.5
2022-12-11T05:31:08.663Z,-2.5
2022-12-11T05:32:08.491Z,-2.5
2022-12-11T05:33:08.482Z,-2.5
2022-12-11T05:34:08.662Z,-2.4
2022-12-11T05:35:08.784Z,-2.5
2022-12-11T05:36:08.486Z,-2.5
2022-12-11T05:37:08.529Z,-2.6
2022-12-11T05:38:08.527Z,-2.6
2022-12-11T05:39:08.493Z,-2.6
2022-12-11T05:40:08.457Z,-2.6
2022-12-11T05:41:08.485Z,-2.6
2022-12-11T05:42:08.495Z,-2.5
2022-12-11T05:43:08.497Z,-2.5
2022-12-11T05:44:08.453Z,-2.5
2022-12-11T05:45:08.788Z,-2.5
2022-12-11T05:46:08.600Z,-2.5
2022-12-11T05:47:08.451Z,-2.5
2022-12-11T05:48:08.524Z,-2.5
2022-12-11T05:49:08.487Z,-2.5
2022-12-11T05:50:08.458Z,-2.5
2022-12-11T05:51:08.494Z,-2.5
2022-12-11T05:52:08.486Z,-2.5
2022-12-11T05:53:08.493Z,-2.5
2022-12-11T05:54:08.456Z,-2.6
2022-12-11T05:55:08.561Z,-2.6
2022-12-11T05:56:08.488Z,-2.6
2022-12-11T05:57:08.454Z,-2.6
2022-12-11T05:58:08.492Z,-2.6
2022-12-11T05:59:08.501Z,-2.6
2022-12-11T06:00:08.505Z,-2.6
2022-12-11T06:01:08.510Z,-2.5
2022-12-11T06:02:08.592Z,-2.5
2022-12-11T06:03:08.582Z,-2.5
2022-12-11T06:04:08.514Z,-2.4
2022-12-11T06:05:08.754Z,-2.4
2022-12-11T06:06:08.558Z,-2.3
2022-12-11T06:07:08.519Z,-2.3
2022-12-11T06:08:08.570Z,-2.3
2022-12-11T06:09:08.508Z,-2.2
2022-12-11T06:10:08.519Z,-2.2
2022-12-11T06:11:08.507Z,-2.2
2022-12-11T06:12:08.507Z,-2.2
2022-12-11T06:13:08.547Z,-2.2
2022-12-11T06:14:08.537Z,-2.3
2022-12-11T06:15:08.688Z,-2.3
2022-12-11T06:16:08.607Z,-2.3
2022-12-11T06:17:08.526Z,-2.3
2022-12-11T06:18:08.536Z,-2.3
2022-12-11T06:19:08.510Z,-2.3
2022-12-11T06:20:08.559Z,-2.3
2022-12-11T06:21:08.511Z,-2.3
2022-12-11T06:22:08.522Z,-2.3
2022-12-11T06:23:08.513Z,-2.2
2022-12-11T06:24:08.513Z,-2.2
2022-12-11T06:25:08.690Z,-2.2
2022-12-11T06:26:08.534Z,-2.2
2022-12-11T06:27:08.519Z,-2.2
2022-12-11T06:28:08.507Z,-2.2
2022-12-11T06:29:12.429Z,-2.2
2022-12-11T06:30:08.533Z,-2.2
2022-12-11T06:31:08.547Z,-2.2
2022-12-11T06:32:08.513Z,-2.2
2022-12-11T06:33:08.567Z,-2.2
2022-12-11T06:34:08.551Z,-2.2
2022-12-11T06:35:08.856Z,-2.1
2022-12-11T06:36:08.521Z,-2.1
2022-12-11T06:37:08.514Z,-2.1
2022-12-11T06:38:08.518Z,-2.1
2022-12-11T06:39:08.513Z,-2.1
2022-12-11T06:40:08.519Z,-2.1
2022-12-11T06:41:08.547Z,-2.1
2022-12-11T06:42:08.518Z,-2.1
2022-12-11T06:43:08.558Z,-2.1
2022-12-11T06:44:08.525Z,-2.1
2022-12-11T06:45:08.774Z,-2.1
2022-12-11T06:46:08.654Z,-2.2
2022-12-11T06:47:08.531Z,-2.2
2022-12-11T06:48:08.601Z,-2.2
2022-12-11T06:49:08.544Z,-2.3
2022-12-11T06:50:08.530Z,-2.3
2022-12-11T06:51:08.538Z,-2.4
2022-12-11T06:52:09.368Z,-2.4
2022-12-11T06:53:08.911Z,-2.5
2022-12-11T06:54:08.606Z,-2.5
2022-12-11T06:55:08.841Z,-2.6
2022-12-11T06:56:08.558Z,-2.6
2022-12-11T06:57:08.541Z,-2.6
2022-12-11T06:58:08.569Z,-2.7
2022-12-11T06:59:08.527Z,-2.7
2022-12-11T07:00:08.579Z,-2.8
2022-12-11T07:01:08.592Z,-2.8
2022-12-11T07:02:08.631Z,-2.8
2022-12-11T07:03:08.634Z,-2.8
2022-12-11T07:04:08.553Z,-2.8
2022-12-11T07:05:08.793Z,-2.8
2022-12-11T07:06:08.541Z,-2.8
2022-12-11T07:07:08.539Z,-2.8
2022-12-11T07:08:08.619Z,-2.8
2022-12-11T07:09:08.578Z,-2.8
2022-12-11T07:10:08.886Z,-2.8
2022-12-11T07:11:08.554Z,-2.8
2022-12-11T07:12:08.544Z,-2.8
2022-12-11T07:13:08.574Z,-2.8
2022-12-11T07:14:08.562Z,-2.8
2022-12-11T07:15:08.820Z,-2.8
2022-12-11T07:16:08.569Z,-2.8
2022-12-11T07:17:08.581Z,-2.8
2022-12-11T07:18:08.594Z,-2.8
2022-12-11T07:19:08.554Z,-2.8
2022-12-11T07:20:08.564Z,-2.7
2022-12-11T07:21:08.656Z,-2.7
2022-12-11T07:22:08.676Z,-2.7
2022-12-11T07:23:08.576Z,-2.7
2022-12-11T07:24:08.591Z,-2.6
2022-12-11T07:25:08.793Z,-2.4
2022-12-11T07:26:08.579Z,-2.4
2022-12-11T07:27:08.558Z,-2.3
2022-12-11T07:28:10.116Z,-2.3
2022-12-11T07:29:08.553Z,-2.2
2022-12-11T07:30:08.622Z,-2.2
2022-12-11T07:31:08.573Z,-2.2
2022-12-11T07:32:08.709Z,-2.2
2022-12-11T07:33:08.621Z,-2.2
2022-12-11T07:34:08.575Z,-2.2
2022-12-11T07:35:08.695Z,-2.3
2022-12-11T07:36:08.563Z,-2.3
2022-12-11T07:37:08.581Z,-2.3
2022-12-11T07:38:08.604Z,-2.3
2022-12-11T07:39:08.565Z,-2.3
2022-12-11T07:40:08.614Z,-2.4
2022-12-11T07:41:08.569Z,-2.4
2022-12-11T07:42:08.572Z,-2.3
2022-12-11T07:43:08.619Z,-2.3
2022-12-11T07:44:08.575Z,-2.3
2022-12-11T07:45:09.055Z,-2.3
2022-12-11T07:46:08.729Z,-2.3
2022-12-11T07:47:08.592Z,-2.2
2022-12-11T07:48:08.649Z,-2.2
2022-12-11T07:49:08.638Z,-2.2
2022-12-11T07:50:08.647Z,-2.2
2022-12-11T07:51:08.600Z,-2.1
2022-12-11T07:52:08.604Z,-2.1
2022-12-11T07:53:08.660Z,-2
2022-12-11T07:54:08.618Z,-2
2022-12-11T07:55:08.905Z,-2
2022-12-11T07:56:08.659Z,-2
2022-12-11T07:57:13.814Z,-1.9
2022-12-11T07:58:08.676Z,-1.9
2022-12-11T07:59:08.666Z,-1.9
2022-12-11T08:00:08.670Z,-1.9
2022-12-11T08:01:08.691Z,-1.9
2022-12-11T08:02:08.671Z,-1.9
2022-12-11T08:03:08.631Z,-1.9
2022-12-11T08:04:08.633Z,-1.9
2022-12-11T08:05:08.899Z,-1.9
2022-12-11T08:06:08.628Z,-1.9
2022-12-11T08:07:08.631Z,-1.9
2022-12-11T08:08:08.707Z,-1.8
2022-12-11T08:09:08.714Z,-1.8
2022-12-11T08:10:08.650Z,-1.8
2022-12-11T08:11:08.628Z,-1.7
2022-12-11T08:12:08.633Z,-1.7
2022-12-11T08:13:08.677Z,-1.7
2022-12-11T08:14:08.639Z,-1.7
2022-12-11T08:15:08.943Z,-1.6
2022-12-11T08:16:08.642Z,-1.6
2022-12-11T08:17:08.634Z,-1.6
2022-12-11T08:18:08.953Z,-1.6
2022-12-11T08:19:08.648Z,-1.6
2022-12-11T08:20:08.683Z,-1.5
2022-12-11T08:21:08.648Z,-1.5
2022-12-11T08:22:08.647Z,-1.5
2022-12-11T08:23:08.696Z,-1.6
2022-12-11T08:24:08.652Z,-1.6
2022-12-11T08:25:08.879Z,-1.6
2022-12-11T08:26:08.703Z,-1.5
2022-12-11T08:27:08.644Z,-1.5
2022-12-11T08:28:08.686Z,-1.5
2022-12-11T08:29:08.651Z,-1.5
2022-12-11T08:30:08.685Z,-1.5
2022-12-11T08:31:08.764Z,-1.5
2022-12-11T08:32:12.207Z,-1.4
2022-12-11T08:33:08.704Z,-1.4
2022-12-11T08:34:08.702Z,-1.4
2022-12-11T08:35:08.855Z,-1.4
2022-12-11T08:36:08.704Z,-1.4
2022-12-11T08:37:08.706Z,-1.4
2022-12-11T08:38:08.697Z,-1.4
2022-12-11T08:39:08.716Z,-1.3
2022-12-11T08:40:08.727Z,-1.3
2022-12-11T08:41:08.740Z,-1.3
2022-12-11T08:42:08.715Z,-1.3
2022-12-11T08:43:08.715Z,-1.3
2022-12-11T08:44:12.981Z,-1.3
2022-12-11T08:45:08.811Z,-1.3
2022-12-11T08:46:08.731Z,-1.3
2022-12-11T08:47:08.683Z,-1.3
2022-12-11T08:48:08.709Z,-1.3
2022-12-11T08:49:08.722Z,-1.3
2022-12-11T08:50:08.701Z,-1.3
2022-12-11T08:51:08.728Z,-1.3
2022-12-11T08:52:08.733Z,-1.3
2022-12-11T08:53:08.736Z,-1.3
2022-12-11T08:54:08.694Z,-1.3
2022-12-11T08:55:08.876Z,-1.3
2022-12-11T08:56:08.693Z,-1.4
2022-12-11T08:57:08.760Z,-1.4
2022-12-11T08:58:08.732Z,-1.4
2022-12-11T08:59:08.797Z,-1.4
2022-12-11T09:00:08.771Z,-1.4
2022-12-11T09:01:08.870Z,-1.4
2022-12-11T09:02:08.752Z,-1.4
2022-12-11T09:03:12.741Z,-1.4
2022-12-11T09:04:08.804Z,-1.4
2022-12-11T09:05:09.028Z,-1.3
2022-12-11T09:06:08.746Z,-1.3
2022-12-11T09:07:08.743Z,-1.3
2022-12-11T09:08:08.839Z,-1.3
2022-12-11T09:09:08.745Z,-1.3
2022-12-11T09:10:08.746Z,-1.3
2022-12-11T09:11:08.755Z,-1.3
2022-12-11T09:12:08.842Z,-1.3
2022-12-11T09:13:08.811Z,-1.3
2022-12-11T09:14:08.749Z,-1.2
2022-12-11T09:15:09.225Z,-1.2
2022-12-11T09:16:08.844Z,-1.2
2022-12-11T09:17:08.762Z,-1.2
2022-12-11T09:18:08.784Z,-1.2
2022-12-11T09:19:08.804Z,-1.2
2022-12-11T09:20:08.764Z,-1.2
2022-12-11T09:21:08.761Z,-1.2
2022-12-11T09:22:08.764Z,-1.2
2022-12-11T09:23:08.798Z,-1.2
2022-12-11T09:24:08.815Z,-1.1
2022-12-11T09:25:09.103Z,-1.2
2022-12-11T09:26:08.820Z,-1.2
2022-12-11T09:27:08.772Z,-1.2
2022-12-11T09:28:08.811Z,-1.2
2022-12-11T09:29:08.842Z,-1.2
2022-12-11T09:30:08.822Z,-1.1
2022-12-11T09:31:08.869Z,-1.1
2022-12-11T09:32:08.780Z,-1.1
2022-12-11T09:33:08.857Z,-1.1
2022-12-11T09:34:08.790Z,-1.1
2022-12-11T09:35:09.056Z,-1.1
2022-12-11T09:36:08.786Z,-1.1
2022-12-11T09:37:08.776Z,-1
2022-12-11T09:38:08.839Z,-1
2022-12-11T09:39:08.790Z,-1
2022-12-11T09:40:08.835Z,-1
2022-12-11T09:41:08.891Z,-1
2022-12-11T09:42:08.814Z,-1
2022-12-11T09:43:08.857Z,-1
2022-12-11T09:44:08.773Z,-1
2022-12-11T09:45:09.078Z,-1
2022-12-11T09:46:08.843Z,-1
2022-12-11T09:47:08.817Z,-1
2022-12-11T09:48:08.831Z,-1
2022-12-11T09:49:08.818Z,-1
2022-12-11T09:50:08.815Z,-1.1
2022-12-11T09:51:08.811Z,-1.1
2022-12-11T09:52:08.834Z,-1.1
2022-12-11T09:53:08.971Z,-1.1
2022-12-11T09:54:08.837Z,-1.1
2022-12-11T09:55:08.997Z,-1.1
2022-12-11T09:56:08.883Z,-1.1
2022-12-11T09:57:08.853Z,-1.1
2022-12-11T09:58:08.852Z,-1.1
2022-12-11T09:59:08.847Z,-1.1
2022-12-11T10:00:08.856Z,-1.1
2022-12-11T10:01:08.932Z,-1.1
2022-12-11T10:02:08.850Z,-1.1
2022-12-11T10:03:08.913Z,-1.1
2022-12-11T10:04:08.881Z,-1.1
2022-12-11T10:05:09.074Z,-1.1
2022-12-11T10:06:08.908Z,-1.1
2022-12-11T10:07:08.876Z,-1.1
2022-12-11T10:08:08.963Z,-1.1
2022-12-11T10:09:08.895Z,-1.1
2022-12-11T10:10:09.106Z,-1.1
2022-12-11T10:11:08.903Z,-1.1
2022-12-11T10:12:08.909Z,-1.1
2022-12-11T10:13:08.956Z,-1.1
2022-12-11T10:14:08.917Z,-1.2
2022-12-11T10:15:09.148Z,-1.2
2022-12-11T10:16:09.042Z,-1.2
2022-12-11T10:17:08.991Z,-1.2
2022-12-11T10:18:08.952Z,-1.2
2022-12-11T10:19:08.884Z,-1.2
2022-12-11T10:20:08.884Z,-1.2
2022-12-11T10:21:08.886Z,-1.2
2022-12-11T10:22:08.916Z,-1.2
2022-12-11T10:23:08.994Z,-1.2
2022-12-11T10:24:08.899Z,-1.2
2022-12-11T10:25:11.759Z,-1.2
2022-12-11T10:26:08.896Z,-1.2
2022-12-11T10:27:08.904Z,-1.2
2022-12-11T10:28:08.929Z,-1.2
2022-12-11T10:29:08.902Z,-1.2
2022-12-11T10:30:08.901Z,-1.2
2022-12-11T10:31:09.038Z,-1.2
2022-12-11T10:32:08.934Z,-1.2
2022-12-11T10:33:09.007Z,-1.2
2022-12-11T10:34:08.951Z,-1.2
2022-12-11T10:35:09.094Z,-1.2
2022-12-11T10:36:08.918Z,-1.2
2022-12-11T10:37:08.920Z,-1.2
2022-12-11T10:38:08.946Z,-1.2
2022-12-11T10:39:08.943Z,-1.2
2022-12-11T10:40:08.943Z,-1.2
2022-12-11T10:41:08.967Z,-1.2
2022-12-11T10:42:08.957Z,-1.2
2022-12-11T10:43:09.128Z,-1.2
2022-12-11T10:44:08.974Z,-1.2
2022-12-11T10:45:09.139Z,-1.2
2022-12-11T10:46:08.993Z,-1.3
2022-12-11T10:47:09.016Z,-1.3
2022-12-11T10:48:09.029Z,-1.3
2022-12-11T10:49:09.123Z,-1.3
2022-12-11T10:50:09.007Z,-1.3
2022-12-11T10:51:08.966Z,-1.3
2022-12-11T10:52:08.980Z,-1.3
2022-12-11T10:53:08.970Z,-1.3
2022-12-11T10:54:09.131Z,-1.3
2022-12-11T10:55:09.130Z,-1.3
2022-12-11T10:56:08.969Z,-1.3
2022-12-11T10:57:08.966Z,-1.3
2022-12-11T10:58:08.991Z,-1.3
2022-12-11T10:59:08.975Z,-1.3
2022-12-11T11:00:08.993Z,-1.3
2022-12-11T11:01:08.989Z,-1.2
2022-12-11T11:02:09.051Z,-1.2
2022-12-11T11:03:09.052Z,-1.2
2022-12-11T11:04:08.994Z,-1.2
2022-12-11T11:05:09.235Z,-1.2
2022-12-11T11:06:08.992Z,-1.2
2022-12-11T11:07:09.003Z,-1.2
2022-12-11T11:08:09.129Z,-1.2
2022-12-11T11:09:08.994Z,-1.2
2022-12-11T11:10:08.960Z,-1.2
2022-12-11T11:11:09.009Z,-1.2
2022-12-11T11:12:08.999Z,-1.2
2022-12-11T11:13:09.027Z,-1.2
2022-12-11T11:14:09.039Z,-1.2
2022-12-11T11:15:09.142Z,-1.2
2022-12-11T11:16:09.051Z,-1.2
2022-12-11T11:17:09.047Z,-1.2
2022-12-11T11:18:09.079Z,-1.2
2022-12-11T11:19:09.052Z,-1.2
2022-12-11T11:20:09.067Z,-1.2
2022-12-11T11:21:09.108Z,-1.2
2022-12-11T11:22:09.071Z,-1.2
2022-12-11T11:23:09.078Z,-1.1
2022-12-11T11:24:09.060Z,-1.1
2022-12-11T11:25:09.232Z,-1.1
2022-12-11T11:26:09.030Z,-1
2022-12-11T11:27:13.593Z,-1
2022-12-11T11:28:09.037Z,-1
2022-12-11T11:29:09.106Z,-1
2022-12-11T11:30:09.043Z,-1
2022-12-11T11:31:09.109Z,-1
2022-12-11T11:32:09.035Z,-1
2022-12-11T11:33:09.092Z,-1
2022-12-11T11:34:09.080Z,-1
2022-12-11T11:35:09.382Z,-1
2022-12-11T11:36:09.082Z,-1
2022-12-11T11:37:09.072Z,-1
2022-12-11T11:38:09.084Z,-1
2022-12-11T11:39:09.094Z,-1.1
2022-12-11T11:40:09.047Z,-1.1
2022-12-11T11:41:14.636Z,-1.1
2022-12-11T11:42:09.081Z,-1.1
2022-12-11T11:43:09.060Z,-1.1
2022-12-11T11:44:09.080Z,-1.1
2022-12-11T11:45:09.540Z,-1.1
2022-12-11T11:46:09.143Z,-1.1
2022-12-11T11:47:09.103Z,-1.1
2022-12-11T11:48:11.402Z,-1.1
2022-12-11T11:49:09.177Z,-1.1
2022-12-11T11:50:09.143Z,-1.1
2022-12-11T11:51:09.115Z,-1.1
2022-12-11T11:52:09.160Z,-1.1
2022-12-11T11:53:09.289Z,-1
2022-12-11T11:54:09.213Z,-1
2022-12-11T11:55:09.737Z,-1
2022-12-11T11:56:09.167Z,-1
2022-12-11T11:57:09.218Z,-1
2022-12-11T11:58:09.178Z,-1
2022-12-11T11:59:09.199Z,-1
2022-12-11T12:00:09.164Z,-1
2022-12-11T12:01:09.241Z,-1
2022-12-11T12:02:09.187Z,-1
2022-12-11T12:03:09.322Z,-0.9
2022-12-11T12:04:09.231Z,-0.9
2022-12-11T12:05:09.517Z,-0.9
2022-12-11T12:06:13.531Z,-1
2022-12-11T12:07:09.166Z,-1
2022-12-11T12:08:09.208Z,-1
2022-12-11T12:09:09.248Z,-1
2022-12-11T12:10:09.273Z,-0.9
2022-12-11T12:11:09.171Z,-0.9
2022-12-11T12:12:09.169Z,-0.9
2022-12-11T12:13:24.077Z,-0.9
2022-12-11T12:14:22.680Z,-0.9
2022-12-11T12:15:09.420Z,-0.9
2022-12-11T12:16:23.095Z,-1
2022-12-11T12:17:09.256Z,-1
2022-12-11T12:18:09.168Z,-1
2022-12-11T12:19:09.210Z,-1
2022-12-11T12:20:09.207Z,-1
2022-12-11T12:21:09.249Z,-1
2022-12-11T12:22:09.180Z,-1
2022-12-11T12:23:09.256Z,-1.1
2022-12-11T12:24:09.203Z,-1.1
2022-12-11T12:25:09.475Z,-1.1
2022-12-11T12:26:09.230Z,-1.1
2022-12-11T12:27:23.005Z,-1.1
2022-12-11T12:28:09.182Z,-1.1
2022-12-11T12:29:09.221Z,-1.1
2022-12-11T12:30:09.203Z,-1.1
2022-12-11T12:31:09.377Z,-1.1
2022-12-11T12:32:09.203Z,-1.1
2022-12-11T12:33:09.189Z,-1.1
2022-12-11T12:34:09.260Z,-1.1
2022-12-11T12:35:09.647Z,-1
2022-12-11T12:36:09.194Z,-1
2022-12-11T12:37:09.282Z,-1
2022-12-11T12:38:09.198Z,-1
2022-12-11T12:39:09.243Z,-1
2022-12-11T12:40:09.244Z,-1
2022-12-11T12:41:09.375Z,-1
2022-12-11T12:42:09.201Z,-1
2022-12-11T12:43:09.209Z,-1.1
2022-12-11T12:44:09.347Z,-1.1
2022-12-11T12:45:09.602Z,-1.1
2022-12-11T12:46:09.309Z,-1.1
2022-12-11T12:47:09.285Z,-1.1
2022-12-11T12:48:09.244Z,-1.1
2022-12-11T12:49:09.250Z,-1.1
2022-12-11T12:50:09.397Z,-1.2
2022-12-11T12:51:09.298Z,-1.2
2022-12-11T12:52:09.254Z,-1.2
2022-12-11T12:53:09.268Z,-1.2
2022-12-11T12:54:12.421Z,-1.2
2022-12-11T12:55:09.581Z,-1.2
2022-12-11T12:56:09.271Z,-1.2
2022-12-11T12:57:09.306Z,-1.2
2022-12-11T12:58:09.276Z,-1.2
2022-12-11T12:59:09.324Z,-1.2
2022-12-11T13:00:12.984Z,-1.2
2022-12-11T13:01:09.328Z,-1.2
2022-12-11T13:02:09.339Z,-1.2
2022-12-11T13:03:09.276Z,-1.2
2022-12-11T13:04:20.840Z,-1.2
2022-12-11T13:05:09.525Z,-1.2
2022-12-11T13:06:09.312Z,-1.2
2022-12-11T13:07:09.341Z,-1.2
2022-12-11T13:08:09.313Z,-1.2
2022-12-11T13:09:09.330Z,-1.2
2022-12-11T13:10:09.380Z,-1.1
2022-12-11T13:11:09.285Z,-1.1
2022-12-11T13:12:09.283Z,-1.1
2022-12-11T13:13:09.347Z,-1.1
2022-12-11T13:14:09.350Z,-1.1
2022-12-11T13:15:09.582Z,-1.1
2022-12-11T13:16:09.308Z,-1.1
2022-12-11T13:17:09.290Z,-1.1
2022-12-11T13:18:09.354Z,-1.1
2022-12-11T13:19:09.326Z,-1.1
2022-12-11T13:20:09.356Z,-1.1
2022-12-11T13:21:09.300Z,-1.1
2022-12-11T13:22:09.360Z,-1.1
2022-12-11T13:23:09.306Z,-1.1